sensor_id;sensor_type;location;lat;lon;timestamp;temperature;humidity
8947;DHT22;4508;48.790;9.028;2023-02-28T00:00:36;-2.80;99.90
8947;DHT22;4508;48.790;9.028;2023-02-28T00:03:05;-2.90;99.90
8947;DHT22;4508;48.790;9.028;2023-02-28T00:05:32;-2.90;99.90
8947;DHT22;4508;48.790;9.028;2023-02-28T00:07:59;-2.90;99.90
8947;DHT22;4508;48.790;9.028;2023-02-28T00:10:28;-3.00;99.90
8947;DHT22;4508;48.790;9.028;2023-02-28T00:12:59;-3.00;99.90
8947;DHT22;4508;48.790;9.028;2023-02-28T00:15:26;-3.00;99.90
8947;DHT22;4508;48.790;9.028;2023-02-28T00:17:53;-2.90;99.90
8947;DHT22;4508;48.790;9.028;2023-02-28T00:20:21;-2.90;99.90
8947;DHT22;4508;48.790;9.028;2023-02-28T00:22:49;-3.00;99.90
8947;DHT22;4508;48.790;9.028;2023-02-28T00:25:19;-3.00;99.90
8947;DHT22;4508;48.790;9.028;2023-02-28T00:27:46;-2.90;99.90
8947;DHT22;4508;48.790;9.028;2023-02-28T00:30:15;-3.00;99.90
8947;DHT22;4508;48.790;9.028;2023-02-28T00:32:42;-3.00;99.90
8947;DHT22;4508;48.790;9.028;2023-02-28T00:35:11;-3.00;99.90
8947;DHT22;4508;48.790;9.028;2023-02-28T00:37:39;-3.00;99.90
8947;DHT22;4508;48.790;9.028;2023-02-28T00:40:07;-3.00;99.90
8947;DHT22;4508;48.790;9.028;2023-02-28T00:42:35;-3.00;99.90
8947;DHT22;4508;48.790;9.028;2023-02-28T00:45:02;-3.00;99.90
8947;DHT22;4508;48.790;9.028;2023-02-28T00:47:30;-3.00;99.90
8947;DHT22;4508;48.790;9.028;2023-02-28T00:49:56;-3.00;99.90
8947;DHT22;4508;48.790;9.028;2023-02-28T00:52:23;-3.00;99.90
8947;DHT22;4508;48.790;9.028;2023-02-28T00:54:51;-3.10;99.90
8947;DHT22;4508;48.790;9.028;2023-02-28T00:57:18;-3.00;99.90
8947;DHT22;4508;48.790;9.028;2023-02-28T00:59:44;-3.00;99.90
8947;DHT22;4508;48.790;9.028;2023-02-28T01:02:11;-3.00;99.90
8947;DHT22;4508;48.790;9.028;2023-02-28T01:04:38;-3.10;99.90
8947;DHT22;4508;48.790;9.028;2023-02-28T01:07:04;-3.10;99.90
8947;DHT22;4508;48.790;9.028;2023-02-28T01:09:31;-3.10;99.90
8947;DHT22;4508;48.790;9.028;2023-02-28T01:11:59;-3.10;99.90
8947;DHT22;4508;48.790;9.028;2023-02-28T01:14:26;-3.10;99.90
8947;DHT22;4508;48.790;9.028;2023-02-28T01:16:52;-3.10;99.90
8947;DHT22;4508;48.790;9.028;2023-02-28T01:19:19;-3.10;99.90
8947;DHT22;4508;48.790;9.028;2023-02-28T01:21:46;-3.10;99.90
8947;DHT22;4508;48.790;9.028;2023-02-28T01:24:12;-3.10;99.90
8947;DHT22;4508;48.790;9.028;2023-02-28T01:26:39;-3.20;99.90
8947;DHT22;4508;48.790;9.028;2023-02-28T01:29:07;-3.20;99.90
8947;DHT22;4508;48.790;9.028;2023-02-28T01:31:34;-3.10;99.90
8947;DHT22;4508;48.790;9.028;2023-02-28T01:34:01;-3.20;99.90
8947;DHT22;4508;48.790;9.028;2023-02-28T01:36:29;-3.20;99.90
8947;DHT22;4508;48.790;9.028;2023-02-28T01:38:56;-3.20;99.90
8947;DHT22;4508;48.790;9.028;2023-02-28T01:41:24;-3.20;99.90
8947;DHT22;4508;48.790;9.028;2023-02-28T01:44:03;-3.20;99.90
8947;DHT22;4508;48.790;9.028;2023-02-28T01:46:33;-3.20;99.90
8947;DHT22;4508;48.790;9.028;2023-02-28T01:49:06;-3.20;99.90
8947;DHT22;4508;48.790;9.028;2023-02-28T01:51:38;-3.20;99.90
8947;DHT22;4508;48.790;9.028;2023-02-28T01:54:08;-3.20;99.90
8947;DHT22;4508;48.790;9.028;2023-02-28T01:56:41;-3.30;99.90
8947;DHT22;4508;48.790;9.028;2023-02-28T01:59:09;-3.20;99.90
8947;DHT22;4508;48.790;9.028;2023-02-28T02:01:38;-3.30;99.90
8947;DHT22;4508;48.790;9.028;2023-02-28T02:04:04;-3.20;99.90
8947;DHT22;4508;48.790;9.028;2023-02-28T02:06:37;-3.20;99.90
8947;DHT22;4508;48.790;9.028;2023-02-28T02:09:04;-3.20;99.90
8947;DHT22;4508;48.790;9.028;2023-02-28T02:11:32;-3.20;99.90
8947;DHT22;4508;48.790;9.028;2023-02-28T02:14:10;-3.20;99.90
8947;DHT22;4508;48.790;9.028;2023-02-28T02:16:50;-3.20;99.90
8947;DHT22;4508;48.790;9.028;2023-02-28T02:19:37;-3.20;99.90
8947;DHT22;4508;48.790;9.028;2023-02-28T02:22:27;-3.20;99.90
8947;DHT22;4508;48.790;9.028;2023-02-28T02:25:10;-3.20;99.90
8947;DHT22;4508;48.790;9.028;2023-02-28T02:30:50;-3.20;99.90
8947;DHT22;4508;48.790;9.028;2023-02-28T02:33:42;-3.20;99.90
8947;DHT22;4508;48.790;9.028;2023-02-28T02:36:18;-3.20;99.90
8947;DHT22;4508;48.790;9.028;2023-02-28T02:38:48;-3.20;99.90
8947;DHT22;4508;48.790;9.028;2023-02-28T02:41:19;-3.20;99.90
8947;DHT22;4508;48.790;9.028;2023-02-28T02:43:52;-3.20;99.90
8947;DHT22;4508;48.790;9.028;2023-02-28T02:46:20;-3.20;99.90
8947;DHT22;4508;48.790;9.028;2023-02-28T02:48:48;-3.20;99.90
8947;DHT22;4508;48.790;9.028;2023-02-28T02:51:20;-3.20;99.90
8947;DHT22;4508;48.790;9.028;2023-02-28T02:53:51;-3.20;99.90
8947;DHT22;4508;48.790;9.028;2023-02-28T02:56:21;-3.20;99.90
8947;DHT22;4508;48.790;9.028;2023-02-28T02:58:50;-3.20;99.90
8947;DHT22;4508;48.790;9.028;2023-02-28T03:01:21;-3.20;99.90
8947;DHT22;4508;48.790;9.028;2023-02-28T03:03:54;-3.10;99.90
8947;DHT22;4508;48.790;9.028;2023-02-28T03:06:23;-3.20;99.90
8947;DHT22;4508;48.790;9.028;2023-02-28T03:08:50;-3.20;99.90
8947;DHT22;4508;48.790;9.028;2023-02-28T03:11:16;-3.10;99.90
8947;DHT22;4508;48.790;9.028;2023-02-28T03:13:54;-3.10;99.90
8947;DHT22;4508;48.790;9.028;2023-02-28T03:16:34;-3.10;99.90
8947;DHT22;4508;48.790;9.028;2023-02-28T03:19:15;-3.00;99.90
8947;DHT22;4508;48.790;9.028;2023-02-28T03:21:54;-3.00;99.90
8947;DHT22;4508;48.790;9.028;2023-02-28T03:24:28;-3.00;99.90
8947;DHT22;4508;48.790;9.028;2023-02-28T03:27:04;-3.00;99.90
8947;DHT22;4508;48.790;9.028;2023-02-28T03:29:35;-3.00;99.90
8947;DHT22;4508;48.790;9.028;2023-02-28T03:32:08;-3.00;99.90
8947;DHT22;4508;48.790;9.028;2023-02-28T03:34:43;-3.00;99.90
8947;DHT22;4508;48.790;9.028;2023-02-28T03:37:17;-2.90;99.90
8947;DHT22;4508;48.790;9.028;2023-02-28T03:39:49;-2.90;99.90
8947;DHT22;4508;48.790;9.028;2023-02-28T03:42:20;-2.90;99.90
8947;DHT22;4508;48.790;9.028;2023-02-28T03:44:51;-2.90;99.90
8947;DHT22;4508;48.790;9.028;2023-02-28T03:47:22;-2.90;99.90
8947;DHT22;4508;48.790;9.028;2023-02-28T03:49:54;-2.90;99.90
8947;DHT22;4508;48.790;9.028;2023-02-28T03:52:30;-2.90;99.90
8947;DHT22;4508;48.790;9.028;2023-02-28T03:55:02;-2.90;99.90
8947;DHT22;4508;48.790;9.028;2023-02-28T03:57:36;-2.90;99.90
8947;DHT22;4508;48.790;9.028;2023-02-28T04:00:07;-2.80;99.90
8947;DHT22;4508;48.790;9.028;2023-02-28T04:02:35;-2.80;99.90
8947;DHT22;4508;48.790;9.028;2023-02-28T04:05:02;-2.80;99.90
8947;DHT22;4508;48.790;9.028;2023-02-28T04:07:30;-2.80;99.90
8947;DHT22;4508;48.790;9.028;2023-02-28T04:09:57;-2.70;99.90
8947;DHT22;4508;48.790;9.028;2023-02-28T04:12:24;-2.70;99.90
8947;DHT22;4508;48.790;9.028;2023-02-28T04:14:51;-2.70;99.90
8947;DHT22;4508;48.790;9.028;2023-02-28T04:17:17;-2.80;99.90
8947;DHT22;4508;48.790;9.028;2023-02-28T04:19:44;-2.70;99.90
8947;DHT22;4508;48.790;9.028;2023-02-28T04:22:11;-2.80;99.90
8947;DHT22;4508;48.790;9.028;2023-02-28T04:24:40;-2.70;99.90
8947;DHT22;4508;48.790;9.028;2023-02-28T04:27:08;-2.70;99.90
8947;DHT22;4508;48.790;9.028;2023-02-28T04:29:35;-2.80;99.90
8947;DHT22;4508;48.790;9.028;2023-02-28T04:32:02;-2.70;99.90
8947;DHT22;4508;48.790;9.028;2023-02-28T04:34:30;-2.70;99.90
8947;DHT22;4508;48.790;9.028;2023-02-28T04:36:57;-2.80;99.90
8947;DHT22;4508;48.790;9.028;2023-02-28T04:39:25;-2.70;99.90
8947;DHT22;4508;48.790;9.028;2023-02-28T04:41:53;-2.70;99.90
8947;DHT22;4508;48.790;9.028;2023-02-28T04:44:20;-2.70;99.90
8947;DHT22;4508;48.790;9.028;2023-02-28T04:46:48;-2.70;99.90
8947;DHT22;4508;48.790;9.028;2023-02-28T04:49:15;-2.60;99.90
8947;DHT22;4508;48.790;9.028;2023-02-28T04:51:42;-2.70;99.90
8947;DHT22;4508;48.790;9.028;2023-02-28T04:54:09;-2.70;99.90
8947;DHT22;4508;48.790;9.028;2023-02-28T04:56:36;-2.60;99.90
8947;DHT22;4508;48.790;9.028;2023-02-28T04:59:04;-2.60;99.90
8947;DHT22;4508;48.790;9.028;2023-02-28T05:01:33;-2.60;99.90
8947;DHT22;4508;48.790;9.028;2023-02-28T05:04:03;-2.60;99.90
8947;DHT22;4508;48.790;9.028;2023-02-28T05:06:32;-2.50;99.90
8947;DHT22;4508;48.790;9.028;2023-02-28T05:09:00;-2.50;99.90
8947;DHT22;4508;48.790;9.028;2023-02-28T05:11:28;-2.50;99.90
8947;DHT22;4508;48.790;9.028;2023-02-28T05:14:00;-2.50;99.90
8947;DHT22;4508;48.790;9.028;2023-02-28T05:16:28;-2.50;99.90
8947;DHT22;4508;48.790;9.028;2023-02-28T05:18:54;-2.60;99.90
8947;DHT22;4508;48.790;9.028;2023-02-28T05:21:27;-2.50;99.90
8947;DHT22;4508;48.790;9.028;2023-02-28T05:23:55;-2.50;99.90
8947;DHT22;4508;48.790;9.028;2023-02-28T05:26:23;-2.50;99.90
8947;DHT22;4508;48.790;9.028;2023-02-28T05:28:49;-2.40;99.90
8947;DHT22;4508;48.790;9.028;2023-02-28T05:31:16;-2.40;99.90
8947;DHT22;4508;48.790;9.028;2023-02-28T05:33:44;-2.40;99.90
8947;DHT22;4508;48.790;9.028;2023-02-28T05:36:12;-2.40;99.90
8947;DHT22;4508;48.790;9.028;2023-02-28T05:38:38;-2.40;99.90
8947;DHT22;4508;48.790;9.028;2023-02-28T05:41:06;-2.40;99.90
8947;DHT22;4508;48.790;9.028;2023-02-28T05:43:33;-2.40;99.90
8947;DHT22;4508;48.790;9.028;2023-02-28T05:46:03;-2.40;99.90
8947;DHT22;4508;48.790;9.028;2023-02-28T05:48:30;-2.50;99.90
8947;DHT22;4508;48.790;9.028;2023-02-28T05:50:58;-2.40;99.90
8947;DHT22;4508;48.790;9.028;2023-02-28T05:53:25;-2.50;99.90
8947;DHT22;4508;48.790;9.028;2023-02-28T05:55:52;-2.40;99.90
8947;DHT22;4508;48.790;9.028;2023-02-28T05:58:19;-2.40;99.90
8947;DHT22;4508;48.790;9.028;2023-02-28T06:00:45;-2.40;99.90
8947;DHT22;4508;48.790;9.028;2023-02-28T06:03:12;-2.40;99.90
8947;DHT22;4508;48.790;9.028;2023-02-28T06:05:39;-2.40;99.90
8947;DHT22;4508;48.790;9.028;2023-02-28T06:08:07;-2.40;99.90
8947;DHT22;4508;48.790;9.028;2023-02-28T06:10:33;-2.40;99.90
8947;DHT22;4508;48.790;9.028;2023-02-28T06:13:00;-2.30;99.90
8947;DHT22;4508;48.790;9.028;2023-02-28T06:15:28;-2.40;99.90
8947;DHT22;4508;48.790;9.028;2023-02-28T06:17:56;-2.40;99.90
8947;DHT22;4508;48.790;9.028;2023-02-28T06:20:24;-2.40;99.90
8947;DHT22;4508;48.790;9.028;2023-02-28T06:22:51;-2.40;99.90
8947;DHT22;4508;48.790;9.028;2023-02-28T06:25:21;-2.40;99.90
8947;DHT22;4508;48.790;9.028;2023-02-28T06:27:47;-2.30;99.90
8947;DHT22;4508;48.790;9.028;2023-02-28T06:30:14;-2.30;99.90
8947;DHT22;4508;48.790;9.028;2023-02-28T06:32:41;-2.30;99.90
8947;DHT22;4508;48.790;9.028;2023-02-28T06:35:08;-2.30;99.90
8947;DHT22;4508;48.790;9.028;2023-02-28T06:37:35;-2.30;99.90
8947;DHT22;4508;48.790;9.028;2023-02-28T06:40:02;-2.30;99.90
8947;DHT22;4508;48.790;9.028;2023-02-28T06:42:32;-2.30;99.90
8947;DHT22;4508;48.790;9.028;2023-02-28T06:44:59;-2.40;99.90
8947;DHT22;4508;48.790;9.028;2023-02-28T06:47:30;-2.40;99.90
8947;DHT22;4508;48.790;9.028;2023-02-28T06:49:57;-2.30;99.90
8947;DHT22;4508;48.790;9.028;2023-02-28T06:52:23;-2.30;99.90
8947;DHT22;4508;48.790;9.028;2023-02-28T06:54:50;-2.30;99.90
8947;DHT22;4508;48.790;9.028;2023-02-28T06:57:25;-2.30;99.90
8947;DHT22;4508;48.790;9.028;2023-02-28T06:59:53;-2.30;99.90
8947;DHT22;4508;48.790;9.028;2023-02-28T07:02:19;-2.30;99.90
8947;DHT22;4508;48.790;9.028;2023-02-28T07:04:46;-2.30;99.90
8947;DHT22;4508;48.790;9.028;2023-02-28T07:07:13;-2.30;99.90
8947;DHT22;4508;48.790;9.028;2023-02-28T07:09:39;-2.30;99.90
8947;DHT22;4508;48.790;9.028;2023-02-28T07:12:06;-2.30;99.90
8947;DHT22;4508;48.790;9.028;2023-02-28T07:14:33;-2.20;99.90
8947;DHT22;4508;48.790;9.028;2023-02-28T07:17:01;-2.10;99.90
8947;DHT22;4508;48.790;9.028;2023-02-28T07:19:27;-2.10;99.90
8947;DHT22;4508;48.790;9.028;2023-02-28T07:21:54;-2.10;99.90
8947;DHT22;4508;48.790;9.028;2023-02-28T07:24:21;-2.10;99.90
8947;DHT22;4508;48.790;9.028;2023-02-28T07:26:51;-2.00;99.90
8947;DHT22;4508;48.790;9.028;2023-02-28T07:29:17;-2.00;99.90
8947;DHT22;4508;48.790;9.028;2023-02-28T07:31:44;-2.00;99.90
8947;DHT22;4508;48.790;9.028;2023-02-28T07:34:13;-1.90;99.90
8947;DHT22;4508;48.790;9.028;2023-02-28T07:36:40;-2.00;99.90
8947;DHT22;4508;48.790;9.028;2023-02-28T07:39:06;-2.00;99.90
8947;DHT22;4508;48.790;9.028;2023-02-28T07:41:34;-1.90;99.90
8947;DHT22;4508;48.790;9.028;2023-02-28T07:44:05;-1.90;99.90
8947;DHT22;4508;48.790;9.028;2023-02-28T07:46:32;-1.90;99.90
8947;DHT22;4508;48.790;9.028;2023-02-28T07:49:00;-1.90;99.90
8947;DHT22;4508;48.790;9.028;2023-02-28T07:51:30;-1.90;99.90
8947;DHT22;4508;48.790;9.028;2023-02-28T07:53:56;-1.90;99.90
8947;DHT22;4508;48.790;9.028;2023-02-28T07:56:23;-1.90;99.90
8947;DHT22;4508;48.790;9.028;2023-02-28T07:58:50;-1.90;99.90
8947;DHT22;4508;48.790;9.028;2023-02-28T08:01:16;-1.80;99.90
8947;DHT22;4508;48.790;9.028;2023-02-28T08:03:44;-1.80;99.90
8947;DHT22;4508;48.790;9.028;2023-02-28T08:06:16;-1.80;99.90
8947;DHT22;4508;48.790;9.028;2023-02-28T08:08:44;-1.80;99.90
8947;DHT22;4508;48.790;9.028;2023-02-28T08:11:11;-1.80;99.90
8947;DHT22;4508;48.790;9.028;2023-02-28T08:13:38;-1.70;99.90
8947;DHT22;4508;48.790;9.028;2023-02-28T08:16:05;-1.80;99.90
8947;DHT22;4508;48.790;9.028;2023-02-28T08:18:32;-1.80;99.90
8947;DHT22;4508;48.790;9.028;2023-02-28T08:20:59;-1.80;99.90
8947;DHT22;4508;48.790;9.028;2023-02-28T08:23:25;-1.70;99.90
8947;DHT22;4508;48.790;9.028;2023-02-28T08:25:57;-1.70;99.90
8947;DHT22;4508;48.790;9.028;2023-02-28T08:28:24;-1.60;99.90
8947;DHT22;4508;48.790;9.028;2023-02-28T08:30:50;-1.60;99.90
8947;DHT22;4508;48.790;9.028;2023-02-28T08:33:17;-1.70;99.90
8947;DHT22;4508;48.790;9.028;2023-02-28T08:35:44;-1.50;99.90
8947;DHT22;4508;48.790;9.028;2023-02-28T08:38:10;-1.50;99.90
8947;DHT22;4508;48.790;9.028;2023-02-28T08:40:37;-1.50;99.90
8947;DHT22;4508;48.790;9.028;2023-02-28T08:43:05;-1.50;99.90
8947;DHT22;4508;48.790;9.028;2023-02-28T08:45:32;-1.40;99.90
8947;DHT22;4508;48.790;9.028;2023-02-28T08:47:58;-1.40;99.90
8947;DHT22;4508;48.790;9.028;2023-02-28T08:50:25;-1.40;99.90
8947;DHT22;4508;48.790;9.028;2023-02-28T08:52:52;-1.50;99.90
8947;DHT22;4508;48.790;9.028;2023-02-28T08:55:18;-1.30;99.90
8947;DHT22;4508;48.790;9.028;2023-02-28T08:57:45;-1.40;99.90
8947;DHT22;4508;48.790;9.028;2023-02-28T09:00:14;-1.30;99.90
8947;DHT22;4508;48.790;9.028;2023-02-28T09:02:41;-1.40;99.90
8947;DHT22;4508;48.790;9.028;2023-02-28T09:05:09;-1.30;99.90
8947;DHT22;4508;48.790;9.028;2023-02-28T09:07:35;-1.20;99.90
8947;DHT22;4508;48.790;9.028;2023-02-28T09:10:02;-1.20;99.90
8947;DHT22;4508;48.790;9.028;2023-02-28T09:12:33;-1.30;99.90
8947;DHT22;4508;48.790;9.028;2023-02-28T09:15:00;-1.20;99.90
8947;DHT22;4508;48.790;9.028;2023-02-28T09:17:28;-1.20;99.90
8947;DHT22;4508;48.790;9.028;2023-02-28T09:19:54;-1.10;99.90
8947;DHT22;4508;48.790;9.028;2023-02-28T09:22:22;-1.10;99.90
8947;DHT22;4508;48.790;9.028;2023-02-28T09:24:49;-1.00;99.90
8947;DHT22;4508;48.790;9.028;2023-02-28T09:27:15;-0.90;99.90
8947;DHT22;4508;48.790;9.028;2023-02-28T09:29:42;-1.00;99.90
8947;DHT22;4508;48.790;9.028;2023-02-28T09:32:09;-1.00;99.90
8947;DHT22;4508;48.790;9.028;2023-02-28T09:34:37;-0.90;99.90
8947;DHT22;4508;48.790;9.028;2023-02-28T09:37:04;-0.90;99.90
8947;DHT22;4508;48.790;9.028;2023-02-28T09:39:30;-0.80;99.90
8947;DHT22;4508;48.790;9.028;2023-02-28T09:41:57;-0.80;99.90
8947;DHT22;4508;48.790;9.028;2023-02-28T09:44:30;-0.70;99.90
8947;DHT22;4508;48.790;9.028;2023-02-28T09:47:00;-0.70;99.90
8947;DHT22;4508;48.790;9.028;2023-02-28T09:49:34;-0.60;99.90
8947;DHT22;4508;48.790;9.028;2023-02-28T09:52:07;-0.60;99.90
8947;DHT22;4508;48.790;9.028;2023-02-28T09:54:37;-0.60;99.90
8947;DHT22;4508;48.790;9.028;2023-02-28T09:57:07;-0.60;99.90
8947;DHT22;4508;48.790;9.028;2023-02-28T09:59:51;-0.60;99.90
8947;DHT22;4508;48.790;9.028;2023-02-28T10:05:27;-0.50;99.90
8947;DHT22;4508;48.790;9.028;2023-02-28T10:08:03;-0.40;99.90
8947;DHT22;4508;48.790;9.028;2023-02-28T10:10:37;-0.20;99.90
8947;DHT22;4508;48.790;9.028;2023-02-28T10:13:11;-0.40;99.90
8947;DHT22;4508;48.790;9.028;2023-02-28T10:15:39;-0.20;99.90
8947;DHT22;4508;48.790;9.028;2023-02-28T10:18:12;-0.40;99.90
8947;DHT22;4508;48.790;9.028;2023-02-28T10:20:40;-0.20;99.90
8947;DHT22;4508;48.790;9.028;2023-02-28T10:23:14;-0.20;99.90
8947;DHT22;4508;48.790;9.028;2023-02-28T10:25:44;0.00;99.90
8947;DHT22;4508;48.790;9.028;2023-02-28T10:28:15;0.20;99.90
8947;DHT22;4508;48.790;9.028;2023-02-28T10:30:46;0.20;99.90
8947;DHT22;4508;48.790;9.028;2023-02-28T10:33:24;0.20;99.90
8947;DHT22;4508;48.790;9.028;2023-02-28T10:35:51;0.10;99.90
8947;DHT22;4508;48.790;9.028;2023-02-28T10:38:22;0.30;99.90
8947;DHT22;4508;48.790;9.028;2023-02-28T10:40:50;0.10;99.90
8947;DHT22;4508;48.790;9.028;2023-02-28T10:43:23;0.10;99.90
8947;DHT22;4508;48.790;9.028;2023-02-28T10:46:00;0.30;99.90
8947;DHT22;4508;48.790;9.028;2023-02-28T10:48:32;0.40;99.90
8947;DHT22;4508;48.790;9.028;2023-02-28T10:51:00;0.70;99.90
8947;DHT22;4508;48.790;9.028;2023-02-28T10:53:37;0.90;99.90
8947;DHT22;4508;48.790;9.028;2023-02-28T10:56:09;0.90;99.90
8947;DHT22;4508;48.790;9.028;2023-02-28T10:58:51;1.10;99.90
8947;DHT22;4508;48.790;9.028;2023-02-28T11:01:20;1.40;99.90
8947;DHT22;4508;48.790;9.028;2023-02-28T11:03:47;1.30;99.90
8947;DHT22;4508;48.790;9.028;2023-02-28T11:06:17;1.40;99.90
8947;DHT22;4508;48.790;9.028;2023-02-28T11:08:49;1.80;99.90
8947;DHT22;4508;48.790;9.028;2023-02-28T11:11:17;2.30;99.90
8947;DHT22;4508;48.790;9.028;2023-02-28T11:13:46;2.50;99.90
8947;DHT22;4508;48.790;9.028;2023-02-28T11:16:14;2.20;99.90
8947;DHT22;4508;48.790;9.028;2023-02-28T11:18:46;2.80;99.90
8947;DHT22;4508;48.790;9.028;2023-02-28T11:21:21;3.20;99.90
8947;DHT22;4508;48.790;9.028;2023-02-28T11:23:52;4.10;99.90
8947;DHT22;4508;48.790;9.028;2023-02-28T11:26:38;4.20;99.90
8947;DHT22;4508;48.790;9.028;2023-02-28T11:29:17;4.10;99.90
8947;DHT22;4508;48.790;9.028;2023-02-28T11:34:43;3.50;99.90
8947;DHT22;4508;48.790;9.028;2023-02-28T11:37:13;4.00;99.90
8947;DHT22;4508;48.790;9.028;2023-02-28T11:39:41;4.70;99.90
8947;DHT22;4508;48.790;9.028;2023-02-28T11:42:31;4.60;99.90
8947;DHT22;4508;48.790;9.028;2023-02-28T11:47:56;6.30;99.90
8947;DHT22;4508;48.790;9.028;2023-02-28T11:50:39;6.00;99.90
8947;DHT22;4508;48.790;9.028;2023-02-28T11:53:14;5.30;99.90
8947;DHT22;4508;48.790;9.028;2023-02-28T11:55:47;4.80;99.90
8947;DHT22;4508;48.790;9.028;2023-02-28T11:58:26;5.10;99.90
8947;DHT22;4508;48.790;9.028;2023-02-28T12:01:02;6.10;99.90
8947;DHT22;4508;48.790;9.028;2023-02-28T12:03:38;5.30;99.90
8947;DHT22;4508;48.790;9.028;2023-02-28T12:06:15;5.60;99.90
8947;DHT22;4508;48.790;9.028;2023-02-28T12:08:53;6.30;99.90
8947;DHT22;4508;48.790;9.028;2023-02-28T12:11:33;6.80;99.90
8947;DHT22;4508;48.790;9.028;2023-02-28T12:14:19;7.20;99.90
8947;DHT22;4508;48.790;9.028;2023-02-28T12:16:57;7.20;99.90
8947;DHT22;4508;48.790;9.028;2023-02-28T12:19:33;6.20;99.90
8947;DHT22;4508;48.790;9.028;2023-02-28T12:22:16;6.70;99.90
8947;DHT22;4508;48.790;9.028;2023-02-28T12:25:00;6.30;99.90
8947;DHT22;4508;48.790;9.028;2023-02-28T12:27:34;7.10;99.90
8947;DHT22;4508;48.790;9.028;2023-02-28T12:30:05;6.90;99.90
8947;DHT22;4508;48.790;9.028;2023-02-28T12:32:36;6.70;99.90
8947;DHT22;4508;48.790;9.028;2023-02-28T12:35:11;6.80;99.90
8947;DHT22;4508;48.790;9.028;2023-02-28T12:37:43;7.00;99.90
8947;DHT22;4508;48.790;9.028;2023-02-28T12:40:14;6.80;99.90
8947;DHT22;4508;48.790;9.028;2023-02-28T12:42:46;6.50;99.90
8947;DHT22;4508;48.790;9.028;2023-02-28T12:45:18;6.50;99.90
8947;DHT22;4508;48.790;9.028;2023-02-28T12:47:50;6.90;99.90
8947;DHT22;4508;48.790;9.028;2023-02-28T12:50:18;6.50;99.90
8947;DHT22;4508;48.790;9.028;2023-02-28T12:52:53;7.10;99.90
8947;DHT22;4508;48.790;9.028;2023-02-28T12:55:29;6.80;99.90
8947;DHT22;4508;48.790;9.028;2023-02-28T12:58:05;6.50;99.90
8947;DHT22;4508;48.790;9.028;2023-02-28T13:00:36;6.20;99.90
8947;DHT22;4508;48.790;9.028;2023-02-28T13:03:30;7.10;99.90
8947;DHT22;4508;48.790;9.028;2023-02-28T13:06:21;7.00;99.90
8947;DHT22;4508;48.790;9.028;2023-02-28T13:09:02;6.80;99.90
8947;DHT22;4508;48.790;9.028;2023-02-28T13:11:33;8.00;99.90
8947;DHT22;4508;48.790;9.028;2023-02-28T13:14:03;8.20;99.90
8947;DHT22;4508;48.790;9.028;2023-02-28T13:16:51;7.00;99.90
8947;DHT22;4508;48.790;9.028;2023-02-28T13:19:20;6.00;99.90
8947;DHT22;4508;48.790;9.028;2023-02-28T13:21:48;6.00;99.90
8947;DHT22;4508;48.790;9.028;2023-02-28T13:24:43;5.10;99.90
8947;DHT22;4508;48.790;9.028;2023-02-28T13:30:02;6.30;99.90
8947;DHT22;4508;48.790;9.028;2023-02-28T13:33:26;5.60;99.90
8947;DHT22;4508;48.790;9.028;2023-02-28T13:36:25;5.30;99.90
8947;DHT22;4508;48.790;9.028;2023-02-28T13:38:55;5.50;99.90
8947;DHT22;4508;48.790;9.028;2023-02-28T13:41:45;5.70;99.90
8947;DHT22;4508;48.790;9.028;2023-02-28T13:44:14;5.90;99.90
8947;DHT22;4508;48.790;9.028;2023-02-28T13:47:20;6.40;99.90
8947;DHT22;4508;48.790;9.028;2023-02-28T13:49:50;6.60;99.90
8947;DHT22;4508;48.790;9.028;2023-02-28T13:52:20;7.20;99.90
8947;DHT22;4508;48.790;9.028;2023-02-28T13:55:20;6.90;99.90
8947;DHT22;4508;48.790;9.028;2023-02-28T13:57:59;6.90;99.90
8947;DHT22;4508;48.790;9.028;2023-02-28T14:00:36;6.60;99.90
8947;DHT22;4508;48.790;9.028;2023-02-28T14:03:22;6.00;99.90
8947;DHT22;4508;48.790;9.028;2023-02-28T14:06:15;6.80;99.90
8947;DHT22;4508;48.790;9.028;2023-02-28T14:08:50;5.70;99.90
8947;DHT22;4508;48.790;9.028;2023-02-28T14:11:28;6.30;99.90
8947;DHT22;4508;48.790;9.028;2023-02-28T14:13:55;6.00;99.90
8947;DHT22;4508;48.790;9.028;2023-02-28T14:16:25;6.10;99.90
8947;DHT22;4508;48.790;9.028;2023-02-28T14:18:59;6.00;99.90
8947;DHT22;4508;48.790;9.028;2023-02-28T14:21:29;5.70;99.90
8947;DHT22;4508;48.790;9.028;2023-02-28T14:27:15;5.90;99.90
8947;DHT22;4508;48.790;9.028;2023-02-28T14:30:03;6.20;99.90
8947;DHT22;4508;48.790;9.028;2023-02-28T14:32:41;5.90;99.90
8947;DHT22;4508;48.790;9.028;2023-02-28T14:35:22;5.70;99.90
8947;DHT22;4508;48.790;9.028;2023-02-28T14:37:57;6.30;99.90
8947;DHT22;4508;48.790;9.028;2023-02-28T14:40:27;6.10;99.90
8947;DHT22;4508;48.790;9.028;2023-02-28T14:42:57;6.40;99.90
8947;DHT22;4508;48.790;9.028;2023-02-28T14:45:27;6.30;99.90
8947;DHT22;4508;48.790;9.028;2023-02-28T14:47:55;6.00;99.90
8947;DHT22;4508;48.790;9.028;2023-02-28T14:50:27;6.20;99.90
8947;DHT22;4508;48.790;9.028;2023-02-28T14:52:56;5.90;99.90
8947;DHT22;4508;48.790;9.028;2023-02-28T14:55:30;5.90;99.90
8947;DHT22;4508;48.790;9.028;2023-02-28T14:57:58;5.90;99.90
8947;DHT22;4508;48.790;9.028;2023-02-28T15:00:27;5.70;99.90
8947;DHT22;4508;48.790;9.028;2023-02-28T15:02:55;5.70;99.90
8947;DHT22;4508;48.790;9.028;2023-02-28T15:05:27;5.70;99.90
8947;DHT22;4508;48.790;9.028;2023-02-28T15:08:09;5.60;99.90
8947;DHT22;4508;48.790;9.028;2023-02-28T15:10:37;5.70;99.90
8947;DHT22;4508;48.790;9.028;2023-02-28T15:13:07;5.50;99.90
8947;DHT22;4508;48.790;9.028;2023-02-28T15:15:44;5.50;99.90
8947;DHT22;4508;48.790;9.028;2023-02-28T15:18:20;5.50;99.90
8947;DHT22;4508;48.790;9.028;2023-02-28T15:20:51;5.30;99.90
8947;DHT22;4508;48.790;9.028;2023-02-28T15:23:19;5.10;99.90
8947;DHT22;4508;48.790;9.028;2023-02-28T15:25:47;5.40;99.90
8947;DHT22;4508;48.790;9.028;2023-02-28T15:28:16;5.60;99.90
8947;DHT22;4508;48.790;9.028;2023-02-28T15:30:57;5.30;99.90
8947;DHT22;4508;48.790;9.028;2023-02-28T15:33:25;5.10;99.90
8947;DHT22;4508;48.790;9.028;2023-02-28T15:36:06;5.10;99.90
8947;DHT22;4508;48.790;9.028;2023-02-28T15:38:35;5.00;99.90
8947;DHT22;4508;48.790;9.028;2023-02-28T15:41:02;5.00;99.90
8947;DHT22;4508;48.790;9.028;2023-02-28T15:43:34;5.10;99.90
8947;DHT22;4508;48.790;9.028;2023-02-28T15:46:04;5.00;99.90
8947;DHT22;4508;48.790;9.028;2023-02-28T15:48:33;5.00;99.90
8947;DHT22;4508;48.790;9.028;2023-02-28T15:51:05;5.00;99.90
8947;DHT22;4508;48.790;9.028;2023-02-28T15:53:36;5.10;99.90
8947;DHT22;4508;48.790;9.028;2023-02-28T15:56:06;5.10;99.90
8947;DHT22;4508;48.790;9.028;2023-02-28T15:58:39;5.30;99.90
8947;DHT22;4508;48.790;9.028;2023-02-28T16:01:16;5.00;99.90
8947;DHT22;4508;48.790;9.028;2023-02-28T16:03:47;5.00;99.90
8947;DHT22;4508;48.790;9.028;2023-02-28T16:06:43;5.00;99.90
8947;DHT22;4508;48.790;9.028;2023-02-28T16:09:12;4.60;99.90
8947;DHT22;4508;48.790;9.028;2023-02-28T16:11:43;4.60;99.90
8947;DHT22;4508;48.790;9.028;2023-02-28T16:14:15;4.50;99.90
8947;DHT22;4508;48.790;9.028;2023-02-28T16:16:44;4.40;99.90
8947;DHT22;4508;48.790;9.028;2023-02-28T16:19:11;4.20;99.90
8947;DHT22;4508;48.790;9.028;2023-02-28T16:21:37;4.30;99.90
8947;DHT22;4508;48.790;9.028;2023-02-28T16:24:06;4.20;99.90
8947;DHT22;4508;48.790;9.028;2023-02-28T16:26:33;4.10;99.90
8947;DHT22;4508;48.790;9.028;2023-02-28T16:29:03;4.10;99.90
8947;DHT22;4508;48.790;9.028;2023-02-28T16:31:30;4.00;99.90
8947;DHT22;4508;48.790;9.028;2023-02-28T16:34:00;4.00;99.90
8947;DHT22;4508;48.790;9.028;2023-02-28T16:36:27;3.90;99.90
8947;DHT22;4508;48.790;9.028;2023-02-28T16:38:55;3.80;99.90
8947;DHT22;4508;48.790;9.028;2023-02-28T16:41:25;3.70;99.90
8947;DHT22;4508;48.790;9.028;2023-02-28T16:43:54;3.60;99.90
8947;DHT22;4508;48.790;9.028;2023-02-28T16:46:25;3.60;99.90
8947;DHT22;4508;48.790;9.028;2023-02-28T16:48:51;3.50;99.90